sensor_id;sensor_type;location;lat;lon;timestamp;P1;durP1;ratioP1;P2;durP2;ratioP2
60726;SDS011;46577;49.004;12.120;2023-04-28T00:00:48;11.70;;;6.27;;
60726;SDS011;46577;49.004;12.120;2023-04-28T00:03:14;12.47;;;5.93;;
60726;SDS011;46577;49.004;12.120;2023-04-28T00:05:40;8.60;;;5.77;;
60726;SDS011;46577;49.004;12.120;2023-04-28T00:08:06;20.97;;;5.67;;
60726;SDS011;46577;49.004;12.120;2023-04-28T00:10:32;12.47;;;5.97;;
60726;SDS011;46577;49.004;12.120;2023-04-28T00:12:58;12.87;;;5.90;;
60726;SDS011;46577;49.004;12.120;2023-04-28T00:15:25;9.83;;;5.97;;
60726;SDS011;46577;49.004;12.120;2023-04-28T00:17:50;7.70;;;5.33;;
60726;SDS011;46577;49.004;12.120;2023-04-28T00:20:17;6.37;;;5.60;;
60726;SDS011;46577;49.004;12.120;2023-04-28T00:22:42;9.53;;;5.70;;
60726;SDS011;46577;49.004;12.120;2023-04-28T00:25:08;10.33;;;5.50;;
60726;SDS011;46577;49.004;12.120;2023-04-28T00:27:34;13.20;;;5.50;;
60726;SDS011;46577;49.004;12.120;2023-04-28T00:30:00;7.23;;;5.40;;
60726;SDS011;46577;49.004;12.120;2023-04-28T00:32:26;9.17;;;5.13;;
60726;SDS011;46577;49.004;12.120;2023-04-28T00:34:52;10.00;;;6.03;;
60726;SDS011;46577;49.004;12.120;2023-04-28T00:37:20;12.10;;;6.20;;
60726;SDS011;46577;49.004;12.120;2023-04-28T00:39:46;12.40;;;6.67;;
60726;SDS011;46577;49.004;12.120;2023-04-28T00:42:12;11.37;;;5.70;;
60726;SDS011;46577;49.004;12.120;2023-04-28T00:44:40;11.00;;;6.10;;
60726;SDS011;46577;49.004;12.120;2023-04-28T00:47:09;15.17;;;5.60;;
60726;SDS011;46577;49.004;12.120;2023-04-28T00:49:35;9.17;;;5.80;;
60726;SDS011;46577;49.004;12.120;2023-04-28T00:52:03;18.07;;;5.70;;
60726;SDS011;46577;49.004;12.120;2023-04-28T00:54:30;8.57;;;5.30;;
60726;SDS011;46577;49.004;12.120;2023-04-28T00:57:00;8.87;;;4.87;;
60726;SDS011;46577;49.004;12.120;2023-04-28T00:59:26;8.70;;;5.47;;
60726;SDS011;46577;49.004;12.120;2023-04-28T01:01:53;12.53;;;5.00;;
60726;SDS011;46577;49.004;12.120;2023-04-28T01:04:19;7.70;;;5.03;;
60726;SDS011;46577;49.004;12.120;2023-04-28T01:06:48;16.50;;;5.73;;
60726;SDS011;46577;49.004;12.120;2023-04-28T01:09:16;7.00;;;5.10;;
60726;SDS011;46577;49.004;12.120;2023-04-28T01:11:42;8.53;;;5.60;;
60726;SDS011;46577;49.004;12.120;2023-04-28T01:14:07;15.97;;;6.53;;
60726;SDS011;46577;49.004;12.120;2023-04-28T01:16:33;9.43;;;5.10;;
60726;SDS011;46577;49.004;12.120;2023-04-28T01:19:01;9.53;;;5.60;;
60726;SDS011;46577;49.004;12.120;2023-04-28T01:21:31;10.53;;;5.60;;
60726;SDS011;46577;49.004;12.120;2023-04-28T01:23:57;15.27;;;6.80;;
60726;SDS011;46577;49.004;12.120;2023-04-28T01:26:23;9.00;;;5.63;;
60726;SDS011;46577;49.004;12.120;2023-04-28T01:28:49;11.87;;;5.90;;
60726;SDS011;46577;49.004;12.120;2023-04-28T01:31:15;8.43;;;5.50;;
60726;SDS011;46577;49.004;12.120;2023-04-28T01:33:41;7.53;;;5.87;;
60726;SDS011;46577;49.004;12.120;2023-04-28T01:36:06;9.33;;;4.67;;
60726;SDS011;46577;49.004;12.120;2023-04-28T01:38:32;8.97;;;5.07;;
60726;SDS011;46577;49.004;12.120;2023-04-28T01:40:58;13.37;;;4.50;;
60726;SDS011;46577;49.004;12.120;2023-04-28T01:43:24;9.20;;;4.23;;
60726;SDS011;46577;49.004;12.120;2023-04-28T01:45:49;9.37;;;5.53;;
60726;SDS011;46577;49.004;12.120;2023-04-28T01:48:15;22.40;;;4.50;;
60726;SDS011;46577;49.004;12.120;2023-04-28T01:50:41;5.20;;;4.23;;
60726;SDS011;46577;49.004;12.120;2023-04-28T01:53:06;8.80;;;4.63;;
60726;SDS011;46577;49.004;12.120;2023-04-28T01:55:32;9.93;;;5.30;;
60726;SDS011;46577;49.004;12.120;2023-04-28T01:57:58;7.27;;;5.03;;
60726;SDS011;46577;49.004;12.120;2023-04-28T02:00:23;14.80;;;4.70;;
60726;SDS011;46577;49.004;12.120;2023-04-28T02:02:49;16.73;;;5.47;;
60726;SDS011;46577;49.004;12.120;2023-04-28T02:05:15;8.83;;;4.93;;
60726;SDS011;46577;49.004;12.120;2023-04-28T02:07:40;8.13;;;5.70;;
60726;SDS011;46577;49.004;12.120;2023-04-28T02:10:06;13.43;;;5.63;;
60726;SDS011;46577;49.004;12.120;2023-04-28T02:12:33;9.60;;;4.87;;
60726;SDS011;46577;49.004;12.120;2023-04-28T02:14:59;9.13;;;5.10;;
60726;SDS011;46577;49.004;12.120;2023-04-28T02:17:25;10.97;;;5.40;;
60726;SDS011;46577;49.004;12.120;2023-04-28T02:19:54;9.60;;;6.13;;
60726;SDS011;46577;49.004;12.120;2023-04-28T02:22:23;11.30;;;5.20;;
60726;SDS011;46577;49.004;12.120;2023-04-28T02:24:48;11.30;;;4.93;;
60726;SDS011;46577;49.004;12.120;2023-04-28T02:27:15;6.50;;;5.50;;
60726;SDS011;46577;49.004;12.120;2023-04-28T02:29:40;9.60;;;5.10;;
60726;SDS011;46577;49.004;12.120;2023-04-28T02:32:06;14.50;;;4.27;;
60726;SDS011;46577;49.004;12.120;2023-04-28T02:34:32;9.90;;;5.77;;
60726;SDS011;46577;49.004;12.120;2023-04-28T02:36:58;14.63;;;5.07;;
60726;SDS011;46577;49.004;12.120;2023-04-28T02:39:23;12.97;;;5.30;;
60726;SDS011;46577;49.004;12.120;2023-04-28T02:41:54;8.57;;;5.97;;
60726;SDS011;46577;49.004;12.120;2023-04-28T02:44:20;9.30;;;5.83;;
60726;SDS011;46577;49.004;12.120;2023-04-28T02:46:46;12.60;;;5.70;;
60726;SDS011;46577;49.004;12.120;2023-04-28T02:49:11;9.37;;;4.90;;
60726;SDS011;46577;49.004;12.120;2023-04-28T02:51:37;9.40;;;5.53;;
60726;SDS011;46577;49.004;12.120;2023-04-28T02:54:03;10.33;;;5.93;;
60726;SDS011;46577;49.004;12.120;2023-04-28T02:56:29;15.03;;;5.53;;
60726;SDS011;46577;49.004;12.120;2023-04-28T02:58:54;16.43;;;5.63;;
60726;SDS011;46577;49.004;12.120;2023-04-28T03:01:20;6.73;;;4.90;;
60726;SDS011;46577;49.004;12.120;2023-04-28T03:03:47;11.60;;;5.10;;
60726;SDS011;46577;49.004;12.120;2023-04-28T03:06:12;8.03;;;4.80;;
60726;SDS011;46577;49.004;12.120;2023-04-28T03:08:38;9.17;;;4.77;;
60726;SDS011;46577;49.004;12.120;2023-04-28T03:11:04;10.57;;;5.50;;
60726;SDS011;46577;49.004;12.120;2023-04-28T03:13:29;11.33;;;5.50;;
60726;SDS011;46577;49.004;12.120;2023-04-28T03:15:55;12.87;;;5.33;;
60726;SDS011;46577;49.004;12.120;2023-04-28T03:18:21;11.13;;;5.07;;
60726;SDS011;46577;49.004;12.120;2023-04-28T03:20:47;7.00;;;4.70;;
60726;SDS011;46577;49.004;12.120;2023-04-28T03:23:13;6.37;;;4.67;;
60726;SDS011;46577;49.004;12.120;2023-04-28T03:25:38;8.97;;;4.40;;
60726;SDS011;46577;49.004;12.120;2023-04-28T03:28:04;9.83;;;5.30;;
60726;SDS011;46577;49.004;12.120;2023-04-28T03:30:30;6.93;;;4.60;;
60726;SDS011;46577;49.004;12.120;2023-04-28T03:32:55;12.67;;;4.60;;
60726;SDS011;46577;49.004;12.120;2023-04-28T03:35:21;13.00;;;4.97;;
60726;SDS011;46577;49.004;12.120;2023-04-28T03:37:47;12.20;;;5.30;;
60726;SDS011;46577;49.004;12.120;2023-04-28T03:40:12;8.23;;;4.73;;
60726;SDS011;46577;49.004;12.120;2023-04-28T03:42:38;15.10;;;5.40;;
60726;SDS011;46577;49.004;12.120;2023-04-28T03:45:03;8.13;;;5.27;;
60726;SDS011;46577;49.004;12.120;2023-04-28T03:47:29;11.40;;;5.20;;
60726;SDS011;46577;49.004;12.120;2023-04-28T03:49:55;7.00;;;5.53;;
60726;SDS011;46577;49.004;12.120;2023-04-28T03:52:22;10.43;;;5.03;;
60726;SDS011;46577;49.004;12.120;2023-04-28T03:54:48;8.70;;;5.33;;
60726;SDS011;46577;49.004;12.120;2023-04-28T03:57:14;9.63;;;4.80;;
60726;SDS011;46577;49.004;12.120;2023-04-28T03:59:40;13.67;;;5.60;;
60726;SDS011;46577;49.004;12.120;2023-04-28T04:02:05;8.90;;;4.53;;
60726;SDS011;46577;49.004;12.120;2023-04-28T04:04:32;13.13;;;5.23;;
60726;SDS011;46577;49.004;12.120;2023-04-28T04:06:57;17.33;;;4.87;;
60726;SDS011;46577;49.004;12.120;2023-04-28T04:09:23;7.37;;;4.80;;
60726;SDS011;46577;49.004;12.120;2023-04-28T04:11:49;13.23;;;5.63;;
60726;SDS011;46577;49.004;12.120;2023-04-28T04:14:14;8.63;;;5.20;;
60726;SDS011;46577;49.004;12.120;2023-04-28T04:16:40;6.50;;;5.30;;
60726;SDS011;46577;49.004;12.120;2023-04-28T04:19:06;7.97;;;4.80;;
60726;SDS011;46577;49.004;12.120;2023-04-28T04:21:31;8.87;;;5.17;;
60726;SDS011;46577;49.004;12.120;2023-04-28T04:23:57;11.47;;;5.30;;
60726;SDS011;46577;49.004;12.120;2023-04-28T04:26:23;7.40;;;5.47;;
60726;SDS011;46577;49.004;12.120;2023-04-28T04:28:48;9.20;;;5.37;;
60726;SDS011;46577;49.004;12.120;2023-04-28T04:31:14;9.17;;;5.33;;
60726;SDS011;46577;49.004;12.120;2023-04-28T04:33:40;10.20;;;5.10;;
60726;SDS011;46577;49.004;12.120;2023-04-28T04:36:06;10.07;;;5.10;;
60726;SDS011;46577;49.004;12.120;2023-04-28T04:38:32;6.23;;;4.83;;
60726;SDS011;46577;49.004;12.120;2023-04-28T04:40:57;5.80;;;4.70;;
60726;SDS011;46577;49.004;12.120;2023-04-28T04:43:23;6.33;;;4.80;;
60726;SDS011;46577;49.004;12.120;2023-04-28T04:45:48;6.23;;;4.57;;
60726;SDS011;46577;49.004;12.120;2023-04-28T04:48:14;13.17;;;4.90;;
60726;SDS011;46577;49.004;12.120;2023-04-28T04:50:40;9.87;;;5.43;;
60726;SDS011;46577;49.004;12.120;2023-04-28T04:53:06;8.27;;;5.40;;
60726;SDS011;46577;49.004;12.120;2023-04-28T04:55:32;14.00;;;5.43;;
60726;SDS011;46577;49.004;12.120;2023-04-28T04:57:57;12.17;;;5.27;;
60726;SDS011;46577;49.004;12.120;2023-04-28T05:00:23;9.30;;;4.50;;
60726;SDS011;46577;49.004;12.120;2023-04-28T05:02:49;4.90;;;4.40;;
60726;SDS011;46577;49.004;12.120;2023-04-28T05:05:15;10.20;;;5.10;;
60726;SDS011;46577;49.004;12.120;2023-04-28T05:07:41;9.50;;;5.10;;
60726;SDS011;46577;49.004;12.120;2023-04-28T05:10:07;7.07;;;4.93;;
60726;SDS011;46577;49.004;12.120;2023-04-28T05:12:35;10.20;;;5.80;;
60726;SDS011;46577;49.004;12.120;2023-04-28T05:15:01;6.27;;;4.10;;
60726;SDS011;46577;49.004;12.120;2023-04-28T05:17:27;14.27;;;6.27;;
60726;SDS011;46577;49.004;12.120;2023-04-28T05:19:52;8.37;;;5.07;;
60726;SDS011;46577;49.004;12.120;2023-04-28T05:22:18;10.67;;;5.20;;
60726;SDS011;46577;49.004;12.120;2023-04-28T05:24:43;14.10;;;5.37;;
60726;SDS011;46577;49.004;12.120;2023-04-28T05:27:09;11.10;;;5.27;;
60726;SDS011;46577;49.004;12.120;2023-04-28T05:29:34;8.13;;;4.10;;
60726;SDS011;46577;49.004;12.120;2023-04-28T05:32:00;13.73;;;5.80;;
60726;SDS011;46577;49.004;12.120;2023-04-28T05:34:26;8.70;;;5.77;;
60726;SDS011;46577;49.004;12.120;2023-04-28T05:36:52;10.07;;;6.07;;
60726;SDS011;46577;49.004;12.120;2023-04-28T05:39:18;9.47;;;6.13;;
60726;SDS011;46577;49.004;12.120;2023-04-28T05:41:43;8.70;;;5.00;;
60726;SDS011;46577;49.004;12.120;2023-04-28T05:44:09;8.23;;;5.30;;
60726;SDS011;46577;49.004;12.120;2023-04-28T05:46:35;11.80;;;5.90;;
60726;SDS011;46577;49.004;12.120;2023-04-28T05:49:01;8.90;;;5.50;;
60726;SDS011;46577;49.004;12.120;2023-04-28T05:51:26;15.03;;;6.90;;
60726;SDS011;46577;49.004;12.120;2023-04-28T05:53:52;11.93;;;6.43;;
60726;SDS011;46577;49.004;12.120;2023-04-28T05:56:17;19.50;;;6.20;;
60726;SDS011;46577;49.004;12.120;2023-04-28T05:58:43;10.63;;;5.80;;
60726;SDS011;46577;49.004;12.120;2023-04-28T06:01:09;10.03;;;5.93;;
60726;SDS011;46577;49.004;12.120;2023-04-28T06:03:35;12.53;;;6.03;;
60726;SDS011;46577;49.004;12.120;2023-04-28T06:06:01;18.60;;;6.30;;
60726;SDS011;46577;49.004;12.120;2023-04-28T06:08:27;10.73;;;5.60;;
60726;SDS011;46577;49.004;12.120;2023-04-28T06:10:52;9.53;;;5.73;;
60726;SDS011;46577;49.004;12.120;2023-04-28T06:13:18;9.70;;;5.47;;
60726;SDS011;46577;49.004;12.120;2023-04-28T06:15:43;9.70;;;5.20;;
60726;SDS011;46577;49.004;12.120;2023-04-28T06:18:09;11.80;;;6.07;;
60726;SDS011;46577;49.004;12.120;2023-04-28T06:20:35;9.03;;;5.57;;
60726;SDS011;46577;49.004;12.120;2023-04-28T06:23:01;13.63;;;6.90;;
60726;SDS011;46577;49.004;12.120;2023-04-28T06:25:27;7.60;;;5.17;;
60726;SDS011;46577;49.004;12.120;2023-04-28T06:27:53;10.53;;;5.37;;
60726;SDS011;46577;49.004;12.120;2023-04-28T06:30:20;10.63;;;5.40;;
60726;SDS011;46577;49.004;12.120;2023-04-28T06:32:47;7.10;;;5.33;;
60726;SDS011;46577;49.004;12.120;2023-04-28T06:35:13;7.97;;;5.10;;
60726;SDS011;46577;49.004;12.120;2023-04-28T06:37:40;7.97;;;5.47;;
60726;SDS011;46577;49.004;12.120;2023-04-28T06:40:06;9.30;;;5.13;;
60726;SDS011;46577;49.004;12.120;2023-04-28T06:42:32;6.90;;;4.80;;
60726;SDS011;46577;49.004;12.120;2023-04-28T06:44:58;12.23;;;5.53;;
60726;SDS011;46577;49.004;12.120;2023-04-28T06:47:23;11.00;;;5.43;;
60726;SDS011;46577;49.004;12.120;2023-04-28T06:49:49;10.00;;;5.93;;
60726;SDS011;46577;49.004;12.120;2023-04-28T06:52:15;9.23;;;5.63;;
60726;SDS011;46577;49.004;12.120;2023-04-28T06:54:41;10.23;;;5.30;;
60726;SDS011;46577;49.004;12.120;2023-04-28T06:57:06;15.47;;;5.87;;
60726;SDS011;46577;49.004;12.120;2023-04-28T06:59:32;8.30;;;5.23;;
60726;SDS011;46577;49.004;12.120;2023-04-28T07:01:58;15.23;;;5.10;;
60726;SDS011;46577;49.004;12.120;2023-04-28T07:04:24;14.33;;;6.23;;
60726;SDS011;46577;49.004;12.120;2023-04-28T07:06:51;10.00;;;5.63;;
60726;SDS011;46577;49.004;12.120;2023-04-28T07:09:16;14.10;;;6.13;;
60726;SDS011;46577;49.004;12.120;2023-04-28T07:11:43;13.53;;;6.07;;
60726;SDS011;46577;49.004;12.120;2023-04-28T07:14:08;13.77;;;5.37;;
60726;SDS011;46577;49.004;12.120;2023-04-28T07:16:34;7.30;;;5.30;;
60726;SDS011;46577;49.004;12.120;2023-04-28T07:19:00;12.93;;;6.23;;
60726;SDS011;46577;49.004;12.120;2023-04-28T07:21:26;6.27;;;5.00;;
60726;SDS011;46577;49.004;12.120;2023-04-28T07:23:52;10.53;;;6.43;;
60726;SDS011;46577;49.004;12.120;2023-04-28T07:26:21;14.63;;;6.27;;
60726;SDS011;46577;49.004;12.120;2023-04-28T07:28:47;11.87;;;6.20;;
60726;SDS011;46577;49.004;12.120;2023-04-28T07:31:13;9.97;;;6.33;;
60726;SDS011;46577;49.004;12.120;2023-04-28T07:33:38;7.83;;;6.07;;
60726;SDS011;46577;49.004;12.120;2023-04-28T07:36:04;12.70;;;7.23;;
60726;SDS011;46577;49.004;12.120;2023-04-28T07:38:30;15.20;;;7.40;;
60726;SDS011;46577;49.004;12.120;2023-04-28T07:40:57;9.20;;;6.47;;
60726;SDS011;46577;49.004;12.120;2023-04-28T07:43:23;12.63;;;7.27;;
60726;SDS011;46577;49.004;12.120;2023-04-28T07:45:49;9.90;;;6.67;;
60726;SDS011;46577;49.004;12.120;2023-04-28T07:48:15;13.00;;;7.00;;
60726;SDS011;46577;49.004;12.120;2023-04-28T07:50:40;11.50;;;7.30;;
60726;SDS011;46577;49.004;12.120;2023-04-28T07:53:06;19.43;;;8.70;;
60726;SDS011;46577;49.004;12.120;2023-04-28T07:55:32;10.63;;;7.37;;
60726;SDS011;46577;49.004;12.120;2023-04-28T07:57:58;14.23;;;7.30;;
60726;SDS011;46577;49.004;12.120;2023-04-28T08:00:24;14.90;;;7.70;;
60726;SDS011;46577;49.004;12.120;2023-04-28T08:02:50;12.00;;;7.83;;
60726;SDS011;46577;49.004;12.120;2023-04-28T08:05:16;19.23;;;8.77;;
60726;SDS011;46577;49.004;12.120;2023-04-28T08:07:41;11.73;;;7.77;;
60726;SDS011;46577;49.004;12.120;2023-04-28T08:10:08;10.87;;;7.27;;
60726;SDS011;46577;49.004;12.120;2023-04-28T08:12:35;20.17;;;8.10;;
60726;SDS011;46577;49.004;12.120;2023-04-28T08:15:02;17.93;;;8.60;;
60726;SDS011;46577;49.004;12.120;2023-04-28T08:17:28;14.57;;;8.03;;
60726;SDS011;46577;49.004;12.120;2023-04-28T08:19:53;16.30;;;9.20;;
60726;SDS011;46577;49.004;12.120;2023-04-28T08:22:19;14.07;;;8.23;;
60726;SDS011;46577;49.004;12.120;2023-04-28T08:24:45;18.03;;;8.53;;
60726;SDS011;46577;49.004;12.120;2023-04-28T08:27:10;15.93;;;8.97;;
60726;SDS011;46577;49.004;12.120;2023-04-28T08:29:36;11.67;;;7.63;;
60726;SDS011;46577;49.004;12.120;2023-04-28T08:32:02;18.20;;;8.70;;
60726;SDS011;46577;49.004;12.120;2023-04-28T08:34:30;18.43;;;9.60;;
60726;SDS011;46577;49.004;12.120;2023-04-28T08:36:59;17.13;;;10.07;;
60726;SDS011;46577;49.004;12.120;2023-04-28T08:39:25;11.77;;;7.97;;
60726;SDS011;46577;49.004;12.120;2023-04-28T08:41:51;16.53;;;8.50;;
60726;SDS011;46577;49.004;12.120;2023-04-28T08:44:17;14.20;;;8.23;;
60726;SDS011;46577;49.004;12.120;2023-04-28T08:46:44;16.67;;;9.83;;
60726;SDS011;46577;49.004;12.120;2023-04-28T08:49:14;12.93;;;8.30;;
60726;SDS011;46577;49.004;12.120;2023-04-28T08:51:45;11.67;;;8.03;;
60726;SDS011;46577;49.004;12.120;2023-04-28T08:54:14;12.50;;;8.97;;
60726;SDS011;46577;49.004;12.120;2023-04-28T08:56:41;16.97;;;8.87;;
60726;SDS011;46577;49.004;12.120;2023-04-28T08:59:10;11.20;;;8.37;;
60726;SDS011;46577;49.004;12.120;2023-04-28T09:01:37;11.37;;;8.40;;
60726;SDS011;46577;49.004;12.120;2023-04-28T09:04:03;18.73;;;10.90;;
60726;SDS011;46577;49.004;12.120;2023-04-28T09:06:33;14.70;;;8.90;;
60726;SDS011;46577;49.004;12.120;2023-04-28T09:11:55;18.90;;;11.30;;
60726;SDS011;46577;49.004;12.120;2023-04-28T09:14:28;16.37;;;9.90;;
60726;SDS011;46577;49.004;12.120;2023-04-28T09:16:56;17.10;;;10.43;;
60726;SDS011;46577;49.004;12.120;2023-04-28T09:19:22;14.60;;;10.33;;
60726;SDS011;46577;49.004;12.120;2023-04-28T09:21:52;12.67;;;8.97;;
60726;SDS011;46577;49.004;12.120;2023-04-28T09:24:29;15.03;;;9.33;;
60726;SDS011;46577;49.004;12.120;2023-04-28T09:26:55;11.70;;;9.57;;
60726;SDS011;46577;49.004;12.120;2023-04-28T09:29:21;17.90;;;10.17;;
60726;SDS011;46577;49.004;12.120;2023-04-28T09:31:47;14.33;;;8.90;;
60726;SDS011;46577;49.004;12.120;2023-04-28T09:34:13;22.57;;;10.27;;
60726;SDS011;46577;49.004;12.120;2023-04-28T09:36:39;16.90;;;10.17;;
60726;SDS011;46577;49.004;12.120;2023-04-28T09:39:05;19.90;;;9.53;;
60726;SDS011;46577;49.004;12.120;2023-04-28T09:41:40;14.00;;;10.60;;
60726;SDS011;46577;49.004;12.120;2023-04-28T09:46:39;17.70;;;10.33;;
60726;SDS011;46577;49.004;12.120;2023-04-28T09:49:06;18.60;;;11.13;;
60726;SDS011;46577;49.004;12.120;2023-04-28T09:51:32;19.30;;;11.00;;
60726;SDS011;46577;49.004;12.120;2023-04-28T09:53:59;16.30;;;10.03;;
60726;SDS011;46577;49.004;12.120;2023-04-28T09:56:26;17.63;;;9.80;;
60726;SDS011;46577;49.004;12.120;2023-04-28T09:58:54;21.30;;;10.30;;
60726;SDS011;46577;49.004;12.120;2023-04-28T10:01:23;15.30;;;9.63;;
60726;SDS011;46577;49.004;12.120;2023-04-28T10:03:51;16.50;;;11.90;;
60726;SDS011;46577;49.004;12.120;2023-04-28T10:06:20;14.10;;;10.30;;
60726;SDS011;46577;49.004;12.120;2023-04-28T10:08:46;15.23;;;10.20;;
60726;SDS011;46577;49.004;12.120;2023-04-28T10:11:15;14.30;;;10.80;;
60726;SDS011;46577;49.004;12.120;2023-04-28T10:13:41;14.77;;;10.03;;
60726;SDS011;46577;49.004;12.120;2023-04-28T10:16:08;22.27;;;10.30;;
60726;SDS011;46577;49.004;12.120;2023-04-28T10:18:35;14.10;;;9.87;;
60726;SDS011;46577;49.004;12.120;2023-04-28T10:21:02;15.20;;;9.60;;
60726;SDS011;46577;49.004;12.120;2023-04-28T10:26:08;20.93;;;11.17;;
60726;SDS011;46577;49.004;12.120;2023-04-28T10:28:43;16.03;;;11.07;;
60726;SDS011;46577;49.004;12.120;2023-04-28T10:31:13;23.63;;;12.37;;
60726;SDS011;46577;49.004;12.120;2023-04-28T10:33:41;20.10;;;12.87;;
60726;SDS011;46577;49.004;12.120;2023-04-28T10:36:08;24.77;;;13.47;;
60726;SDS011;46577;49.004;12.120;2023-04-28T10:38:35;18.47;;;13.70;;
60726;SDS011;46577;49.004;12.120;2023-04-28T10:41:32;19.70;;;11.80;;
60726;SDS011;46577;49.004;12.120;2023-04-28T10:43:58;19.83;;;13.00;;
60726;SDS011;46577;49.004;12.120;2023-04-28T10:46:23;27.00;;;13.60;;
60726;SDS011;46577;49.004;12.120;2023-04-28T10:58:36;22.73;;;14.43;;
60726;SDS011;46577;49.004;12.120;2023-04-28T11:03:50;24.80;;;14.67;;
60726;SDS011;46577;49.004;12.120;2023-04-28T11:06:32;23.00;;;16.73;;
60726;SDS011;46577;49.004;12.120;2023-04-28T11:19:27;23.63;;;13.47;;
60726;SDS011;46577;49.004;12.120;2023-04-28T11:21:55;19.60;;;14.80;;
60726;SDS011;46577;49.004;12.120;2023-04-28T11:24:22;19.80;;;14.33;;
60726;SDS011;46577;49.004;12.120;2023-04-28T11:26:58;16.20;;;13.00;;
60726;SDS011;46577;49.004;12.120;2023-04-28T11:29:34;21.70;;;14.10;;
60726;SDS011;46577;49.004;12.120;2023-04-28T11:32:01;21.10;;;12.17;;
60726;SDS011;46577;49.004;12.120;2023-04-28T11:34:27;18.80;;;13.17;;
60726;SDS011;46577;49.004;12.120;2023-04-28T11:36:53;20.00;;;12.60;;
60726;SDS011;46577;49.004;12.120;2023-04-28T11:39:29;21.77;;;14.07;;
60726;SDS011;46577;49.004;12.120;2023-04-28T11:41:57;23.10;;;11.57;;
60726;SDS011;46577;49.004;12.120;2023-04-28T11:44:25;20.50;;;13.90;;
60726;SDS011;46577;49.004;12.120;2023-04-28T11:46:54;20.63;;;13.53;;
60726;SDS011;46577;49.004;12.120;2023-04-28T11:49:25;21.17;;;13.93;;
60726;SDS011;46577;49.004;12.120;2023-04-28T11:51:57;22.40;;;13.87;;
60726;SDS011;46577;49.004;12.120;2023-04-28T11:54:29;18.77;;;14.07;;
60726;SDS011;46577;49.004;12.120;2023-04-28T11:56:56;26.33;;;15.73;;
60726;SDS011;46577;49.004;12.120;2023-04-28T11:59:25;18.90;;;14.10;;
60726;SDS011;46577;49.004;12.120;2023-04-28T12:01:55;19.10;;;13.77;;
60726;SDS011;46577;49.004;12.120;2023-04-28T12:07:03;27.20;;;13.87;;
60726;SDS011;46577;49.004;12.120;2023-04-28T12:09:37;23.57;;;15.33;;
60726;SDS011;46577;49.004;12.120;2023-04-28T12:12:05;29.50;;;14.63;;
60726;SDS011;46577;49.004;12.120;2023-04-28T12:14:32;19.87;;;14.47;;
60726;SDS011;46577;49.004;12.120;2023-04-28T12:17:26;23.70;;;15.50;;
60726;SDS011;46577;49.004;12.120;2023-04-28T12:19:53;20.17;;;15.40;;
60726;SDS011;46577;49.004;12.120;2023-04-28T12:22:21;14.43;;;12.87;;
60726;SDS011;46577;49.004;12.120;2023-04-28T12:27:32;16.17;;;12.70;;
60726;SDS011;46577;49.004;12.120;2023-04-28T12:29:58;18.53;;;13.33;;
60726;SDS011;46577;49.004;12.120;2023-04-28T12:32:40;19.07;;;13.63;;
60726;SDS011;46577;49.004;12.120;2023-04-28T12:35:09;19.70;;;13.30;;
60726;SDS011;46577;49.004;12.120;2023-04-28T12:37:35;21.10;;;13.17;;
60726;SDS011;46577;49.004;12.120;2023-04-28T12:40:02;18.00;;;13.20;;
60726;SDS011;46577;49.004;12.120;2023-04-28T12:42:29;18.13;;;13.37;;
60726;SDS011;46577;49.004;12.120;2023-04-28T12:44:54;18.77;;;14.03;;
60726;SDS011;46577;49.004;12.120;2023-04-28T12:47:20;16.40;;;12.60;;
60726;SDS011;46577;49.004;12.120;2023-04-28T12:49:46;23.40;;;13.80;;
60726;SDS011;46577;49.004;12.120;2023-04-28T12:52:14;20.77;;;14.20;;
60726;SDS011;46577;49.004;12.120;2023-04-28T12:54:40;16.63;;;13.17;;
60726;SDS011;46577;49.004;12.120;2023-04-28T12:57:11;24.77;;;13.27;;
60726;SDS011;46577;49.004;12.120;2023-04-28T12:59:44;24.13;;;14.87;;
60726;SDS011;46577;49.004;12.120;2023-04-28T13:02:14;20.10;;;15.50;;
60726;SDS011;46577;49.004;12.120;2023-04-28T13:04:40;19.83;;;15.20;;
60726;SDS011;46577;49.004;12.120;2023-04-28T13:07:11;20.00;;;14.20;;
60726;SDS011;46577;49.004;12.120;2023-04-28T13:09:37;20.53;;;13.20;;
60726;SDS011;46577;49.004;12.120;2023-04-28T13:12:03;16.47;;;12.20;;
60726;SDS011;46577;49.004;12.120;2023-04-28T13:14:29;17.50;;;13.10;;
60726;SDS011;46577;49.004;12.120;2023-04-28T13:16:55;17.00;;;13.17;;
60726;SDS011;46577;49.004;12.120;2023-04-28T13:19:21;19.10;;;13.40;;
60726;SDS011;46577;49.004;12.120;2023-04-28T13:21:47;20.00;;;13.37;;
60726;SDS011;46577;49.004;12.120;2023-04-28T13:24:13;16.20;;;12.40;;
60726;SDS011;46577;49.004;12.120;2023-04-28T13:26:39;17.07;;;12.53;;
60726;SDS011;46577;49.004;12.120;2023-04-28T13:29:05;18.20;;;11.70;;
60726;SDS011;46577;49.004;12.120;2023-04-28T13:31:32;20.67;;;12.93;;
60726;SDS011;46577;49.004;12.120;2023-04-28T13:33:58;20.07;;;13.60;;
60726;SDS011;46577;49.004;12.120;2023-04-28T13:36:26;15.80;;;11.80;;
60726;SDS011;46577;49.004;12.120;2023-04-28T13:38:53;19.37;;;13.00;;
60726;SDS011;46577;49.004;12.120;2023-04-28T13:41:19;15.20;;;12.63;;
60726;SDS011;46577;49.004;12.120;2023-04-28T13:43:46;18.13;;;12.40;;
60726;SDS011;46577;49.004;12.120;2023-04-28T13:46:11;15.40;;;12.40;;
60726;SDS011;46577;49.004;12.120;2023-04-28T13:48:37;17.30;;;14.00;;
60726;SDS011;46577;49.004;12.120;2023-04-28T13:51:04;19.93;;;13.87;;
60726;SDS011;46577;49.004;12.120;2023-04-28T13:53:30;19.30;;;13.43;;
60726;SDS011;46577;49.004;12.120;2023-04-28T13:55:57;19.17;;;13.87;;
60726;SDS011;46577;49.004;12.120;2023-04-28T13:58:26;17.10;;;13.20;;
60726;SDS011;46577;49.004;12.120;2023-04-28T14:00:52;20.27;;;13.63;;
60726;SDS011;46577;49.004;12.120;2023-04-28T14:03:19;17.40;;;13.20;;
60726;SDS011;46577;49.004;12.120;2023-04-28T14:05:48;18.33;;;11.57;;
60726;SDS011;46577;49.004;12.120;2023-04-28T14:08:16;19.23;;;13.53;;
60726;SDS011;46577;49.004;12.120;2023-04-28T14:10:42;17.93;;;12.77;;
60726;SDS011;46577;49.004;12.120;2023-04-28T14:13:07;16.77;;;13.47;;
60726;SDS011;46577;49.004;12.120;2023-04-28T14:15:33;16.30;;;11.97;;
60726;SDS011;46577;49.004;12.120;2023-04-28T14:17:59;20.37;;;13.07;;
60726;SDS011;46577;49.004;12.120;2023-04-28T14:20:25;17.07;;;12.70;;
60726;SDS011;46577;49.004;12.120;2023-04-28T14:22:52;16.97;;;12.93;;
60726;SDS011;46577;49.004;12.120;2023-04-28T14:25:17;19.43;;;13.47;;
60726;SDS011;46577;49.004;12.120;2023-04-28T14:27:43;16.80;;;13.67;;
60726;SDS011;46577;49.004;12.120;2023-04-28T14:30:09;17.73;;;12.47;;
60726;SDS011;46577;49.004;12.120;2023-04-28T14:32:35;17.10;;;12.73;;
60726;SDS011;46577;49.004;12.120;2023-04-28T14:35:02;23.10;;;14.27;;
60726;SDS011;46577;49.004;12.120;2023-04-28T14:37:30;17.10;;;12.80;;
60726;SDS011;46577;49.004;12.120;2023-04-28T14:39:56;23.40;;;13.67;;
60726;SDS011;46577;49.004;12.120;2023-04-28T14:42:26;18.87;;;13.00;;
60726;SDS011;46577;49.004;12.120;2023-04-28T14:44:53;17.80;;;14.77;;
60726;SDS011;46577;49.004;12.120;2023-04-28T14:47:19;22.33;;;15.50;;
60726;SDS011;46577;49.004;12.120;2023-04-28T14:49:45;21.00;;;14.30;;
60726;SDS011;46577;49.004;12.120;2023-04-28T14:52:12;18.40;;;14.73;;
60726;SDS011;46577;49.004;12.120;2023-04-28T14:54:38;20.67;;;14.50;;